Hauptseite
METAR-TAF:

METAR-TAF

Flughäfen :

Flughafen Balıkesir-Koca Seyit

Edremit, Türkei

Breite: 39-33-16N, Länge: 27-00-49E, Höhe: 15 m

Beobachtung

Neuester Wetterbericht von vor 1 Stunde und 0 Minuten, um 14:50 UTC
Wind 6 kt aus West/Südwest
Temperatur 15°C
Luftfeuchtigkeit 44%
Luftdruck 1017 hPa
Sichtweite 10 km oder mehr
keine Wolken unter 1500 m und keine Kumulonimbus oder Gewitterwolken

METAR: LTFD 251450Z 25006KT CAVOK 15/03 Q1017

Zeit: 18:50 (15:50 UTC)

Prognose

Neuester Wetterbericht von vor 2 Stunden und 10 Minuten, um 13:40 UTC
Gültige Prognose vom 25 um 15 UTC bis 25 um 24 UTC
Wind 8 kt aus West/Südwest
Sichtweite 10 km oder mehr
keine Wolken unter 1500 m und keine Kumulonimbus oder Gewitterwolken

TAF: LTFD 251340Z 2515/2524 25008KT CAVOK

Wetterbeobachtungen und Prognosen von mehr als 4000 Flughäfen (METAR und TAF Bericht).

Die verfügbaren Stationen werden durch gelbe und rote Markierungen auf der Karte dargestellt.

Führen Sie die Maus auf sie, um den Namen der Station zu sehen.

Darauf klicken, um die Beobachtung von Wetterbeobachtungen und Prognosen zu sehen.

Um die Karte zu ändern : klicken Sie auf den grünen Tasten mit einem schwarzen Kreuz Zum Vergrößern, auf den grünen Button mit einem Gedankenstrich zu verkleinern, oder auf die grünen Pfeile für benachbarte Karten.


METAR-TAF: